CheckWX is a tool to help pilots better visualize weather data.  It is not intended as a substitute for an official pre-flight weather briefing.

09:41:00 UTC

VTBS METAR
Suvarnabhumi Airport
Bangkok, Thailand
Current

41 mins ago

VTBS 180900Z 06009KT 020V090 9000 FEW020 34/22 Q1009 NOSIG
Observed
Oct-18 @ 09:00 UTC
Wind
  • 060° at 9 KTS
Visibility
9,000 meters
Flight Rules
VFR
Cloud Levels
  • Few at 2,000' AGL
Temperature
34°C / 93°F
Dewpoint
22°C / 72°F
Heat Index
38°C / 100°F
Humidity
49%
Altimeter
29.79" Hg
Pressure
1008.92 hPa
Previous

1 hour ago

VTBS 180830Z 07010KT 040V110 9000 FEW020 34/21 Q1009 NOSIG
Observed
Oct-18 @ 08:30 UTC
Wind
  • 070° at 10 KTS
Visibility
9,000 meters
Flight Rules
VFR
Cloud Levels
  • Few at 2,000' AGL
Temperature
34°C / 93°F
Dewpoint
21°C / 70°F
Heat Index
37°C / 99°F
Humidity
47%
Altimeter
29.79" Hg
Pressure
1008.92 hPa
Previous

2 hours ago

VTBS 180800Z 06011KT 9000 FEW020 34/21 Q1009 NOSIG
Observed
Oct-18 @ 08:00 UTC
Wind
  • 060° at 11 KTS
Visibility
9,000 meters
Flight Rules
VFR
Cloud Levels
  • Few at 2,000' AGL
Temperature
34°C / 93°F
Dewpoint
21°C / 70°F
Heat Index
37°C / 99°F
Humidity
47%
Altimeter
29.79" Hg
Pressure
1008.92 hPa